createdAt,value
2023-02-20T00:00:58.722Z,4.86
2023-02-20T00:03:26.301Z,4.90
2023-02-20T00:05:52.731Z,4.85
2023-02-20T00:08:19.130Z,4.90
2023-02-20T00:10:45.590Z,4.91
2023-02-20T00:13:12.007Z,4.89
2023-02-20T00:15:38.502Z,4.96
2023-02-20T00:18:04.913Z,4.94
2023-02-20T00:20:31.330Z,4.93
2023-02-20T00:22:58.892Z,4.96
2023-02-20T00:25:25.342Z,4.96
2023-02-20T00:27:51.773Z,4.95
2023-02-20T00:30:20.203Z,4.99
2023-02-20T00:32:47.399Z,5.03
2023-02-20T00:35:13.911Z,5.03
2023-02-20T00:37:40.333Z,5.02
2023-02-20T00:40:07.226Z,5.01
2023-02-20T00:42:33.633Z,5.00
2023-02-20T00:45:00.093Z,5.01
2023-02-20T00:47:26.508Z,4.99
2023-02-20T00:49:52.906Z,5.00
2023-02-20T00:52:19.546Z,5.00
2023-02-20T00:54:45.948Z,5.09
2023-02-20T00:57:12.358Z,5.10
2023-02-20T00:59:38.761Z,5.11
2023-02-20T01:02:05.154Z,5.09
2023-02-20T01:04:31.561Z,5.08
2023-02-20T01:06:57.964Z,5.09
2023-02-20T01:09:24.384Z,5.11
2023-02-20T01:11:50.787Z,5.08
2023-02-20T01:14:17.224Z,5.10
2023-02-20T01:16:45.035Z,5.09
2023-02-20T01:19:11.658Z,5.11
2023-02-20T01:21:38.042Z,5.11
2023-02-20T01:24:04.620Z,5.13
2023-02-20T01:26:31.023Z,5.12
2023-02-20T01:28:57.447Z,5.24
2023-02-20T01:31:23.932Z,5.23
2023-02-20T01:33:50.413Z,5.24
2023-02-20T01:36:16.828Z,5.25
2023-02-20T01:38:43.254Z,5.27
2023-02-20T01:41:09.984Z,5.25
2023-02-20T01:43:36.468Z,5.29
2023-02-20T01:46:27.406Z,5.32
2023-02-20T01:49:05.420Z,5.30
2023-02-20T01:51:37.023Z,5.31
2023-02-20T01:54:04.725Z,5.29
2023-02-20T01:56:31.126Z,5.33
2023-02-20T01:58:57.518Z,5.34
2023-02-20T02:01:23.928Z,5.35
2023-02-20T02:03:52.141Z,5.37
2023-02-20T02:06:18.548Z,5.39
2023-02-20T02:08:44.935Z,5.44
2023-02-20T02:11:13.635Z,5.39
2023-02-20T02:13:40.158Z,5.43
2023-02-20T02:16:12.507Z,5.46
2023-02-20T02:18:41.911Z,5.53
2023-02-20T02:21:26.719Z,5.55
2023-02-20T02:24:11.757Z,5.59
2023-02-20T02:26:50.136Z,5.63
2023-02-20T02:29:22.561Z,5.60
2023-02-20T02:32:01.099Z,5.58
2023-02-20T02:35:04.805Z,5.64
2023-02-20T02:37:44.101Z,5.60
2023-02-20T02:40:26.454Z,5.59
2023-02-20T02:43:09.279Z,5.57
2023-02-20T02:45:52.064Z,5.58
2023-02-20T02:48:33.613Z,5.62
2023-02-20T02:51:03.669Z,5.64
2023-02-20T02:53:30.059Z,5.68
2023-02-20T02:55:56.463Z,5.62
2023-02-20T02:58:22.870Z,5.60
2023-02-20T03:00:57.552Z,5.59
2023-02-20T03:03:29.208Z,5.60
2023-02-20T03:06:00.677Z,5.59
2023-02-20T03:08:47.521Z,5.57
2023-02-20T03:11:18.501Z,5.57
2023-02-20T03:13:51.445Z,5.55
2023-02-20T03:16:19.109Z,5.53
2023-02-20T03:18:45.497Z,5.53
2023-02-20T03:21:15.335Z,5.60
2023-02-20T03:23:42.337Z,5.65
2023-02-20T03:26:16.011Z,5.61
2023-02-20T03:29:06.009Z,5.65
2023-02-20T03:31:35.524Z,5.64
2023-02-20T03:34:06.582Z,5.65
2023-02-20T03:36:35.518Z,5.68
2023-02-20T03:39:15.046Z,5.69
2023-02-20T03:41:41.475Z,5.69
2023-02-20T03:44:07.885Z,5.66
2023-02-20T03:46:35.141Z,5.62
2023-02-20T03:49:07.241Z,5.62
2023-02-20T03:51:33.627Z,5.64
2023-02-20T03:54:00.044Z,5.68
2023-02-20T03:56:45.035Z,5.77
2023-02-20T03:59:26.386Z,5.71
2023-02-20T04:01:55.193Z,5.69
2023-02-20T04:04:24.970Z,5.73
2023-02-20T04:06:51.220Z,5.73
2023-02-20T04:09:21.240Z,5.68
2023-02-20T04:11:49.969Z,5.65
2023-02-20T04:14:16.396Z,5.64
2023-02-20T04:16:45.592Z,5.70
2023-02-20T04:19:12.019Z,5.70
2023-02-20T04:21:59.057Z,5.72
2023-02-20T04:24:50.153Z,5.75
2023-02-20T04:27:16.548Z,5.72
2023-02-20T04:29:42.929Z,5.78
2023-02-20T04:32:09.330Z,5.86
2023-02-20T04:34:35.725Z,5.83
2023-02-20T04:37:16.252Z,5.82
2023-02-20T04:39:42.730Z,5.77
2023-02-20T04:42:09.670Z,5.82
2023-02-20T04:44:36.046Z,5.76
2023-02-20T04:47:07.312Z,5.84
2023-02-20T04:49:33.788Z,5.79
2023-02-20T04:52:00.334Z,5.80
2023-02-20T04:54:26.775Z,5.84
2023-02-20T04:56:53.284Z,5.90
2023-02-20T04:59:19.689Z,5.90
2023-02-20T05:01:46.148Z,5.86
2023-02-20T05:04:12.572Z,5.84
2023-02-20T05:06:43.396Z,5.82
2023-02-20T05:09:09.795Z,5.84
2023-02-20T05:11:37.280Z,5.86
2023-02-20T05:14:04.232Z,5.89
2023-02-20T05:16:30.625Z,5.90
2023-02-20T05:18:57.043Z,5.96
2023-02-20T05:21:23.468Z,5.92
2023-02-20T05:23:49.880Z,5.96
2023-02-20T05:26:21.004Z,5.98
2023-02-20T05:28:47.407Z,5.98
2023-02-20T05:31:16.999Z,5.98
2023-02-20T05:33:43.980Z,5.97
2023-02-20T05:36:10.542Z,5.89
2023-02-20T05:38:37.157Z,5.97
2023-02-20T05:41:03.562Z,5.98
2023-02-20T05:43:29.972Z,5.93
2023-02-20T05:45:56.358Z,5.93
2023-02-20T05:48:22.755Z,5.98
2023-02-20T05:50:49.171Z,5.99
2023-02-20T05:53:15.561Z,5.94
2023-02-20T05:55:41.966Z,5.90
2023-02-20T05:58:08.362Z,5.90
2023-02-20T06:00:34.790Z,5.90
2023-02-20T06:03:01.199Z,5.91
2023-02-20T06:05:27.609Z,5.87
2023-02-20T06:07:53.999Z,5.91
2023-02-20T06:10:20.540Z,5.88
2023-02-20T06:12:46.979Z,5.85
2023-02-20T06:15:13.385Z,5.93
2023-02-20T06:17:39.785Z,5.94
2023-02-20T06:20:06.614Z,5.95
2023-02-20T06:22:33.075Z,5.93
2023-02-20T06:24:59.472Z,5.94
2023-02-20T06:27:25.877Z,5.99
2023-02-20T06:29:52.256Z,5.99
2023-02-20T06:32:18.734Z,6.08
2023-02-20T06:34:45.203Z,6.19
2023-02-20T06:37:11.696Z,6.22
2023-02-20T06:39:38.091Z,6.27
2023-02-20T06:42:04.810Z,6.29
2023-02-20T06:44:31.224Z,6.33
2023-02-20T06:46:57.703Z,6.38
2023-02-20T06:49:24.092Z,6.40
2023-02-20T06:51:53.000Z,6.40
2023-02-20T06:54:19.421Z,6.40
2023-02-20T06:56:45.839Z,6.40
2023-02-20T06:59:12.453Z,6.47
2023-02-20T07:01:40.123Z,6.47
2023-02-20T07:04:06.897Z,6.45
2023-02-20T07:06:33.310Z,6.47
2023-02-20T07:08:59.706Z,6.52
2023-02-20T07:11:26.088Z,6.54
2023-02-20T07:13:52.500Z,6.54
2023-02-20T07:16:18.960Z,6.52
2023-02-20T07:18:45.404Z,6.50
2023-02-20T07:21:11.815Z,6.51
2023-02-20T07:23:38.238Z,6.52
2023-02-20T07:26:04.720Z,6.55
2023-02-20T07:28:31.137Z,6.67
2023-02-20T07:30:57.557Z,6.65
2023-02-20T07:33:23.963Z,6.63
2023-02-20T07:35:50.395Z,6.61
2023-02-20T07:38:20.898Z,6.60
2023-02-20T07:40:50.459Z,6.64
2023-02-20T07:43:25.262Z,6.68
2023-02-20T07:45:52.216Z,6.64
2023-02-20T07:48:19.165Z,6.65
2023-02-20T07:50:45.630Z,6.67
2023-02-20T07:53:16.185Z,6.69
2023-02-20T07:55:42.675Z,6.73
2023-02-20T07:58:09.198Z,6.72
2023-02-20T08:00:35.669Z,6.75
2023-02-20T08:03:02.171Z,6.77
2023-02-20T08:05:32.793Z,6.75
2023-02-20T08:08:03.941Z,6.79
2023-02-20T08:10:30.387Z,6.78
2023-02-20T08:12:56.830Z,6.78
2023-02-20T08:15:23.306Z,6.82
2023-02-20T08:17:52.193Z,6.84
2023-02-20T08:20:19.451Z,6.80
2023-02-20T08:22:46.009Z,6.88
2023-02-20T08:25:12.459Z,6.86
2023-02-20T08:27:42.464Z,6.85
2023-02-20T08:30:11.704Z,6.87
2023-02-20T08:32:38.306Z,6.94
2023-02-20T08:35:10.780Z,6.98
2023-02-20T08:37:37.242Z,6.96
2023-02-20T08:40:03.830Z,6.96
2023-02-20T08:42:30.252Z,6.97
2023-02-20T08:44:56.652Z,7.04
2023-02-20T08:47:23.073Z,7.02
2023-02-20T08:49:49.513Z,7.06
2023-02-20T08:52:15.929Z,7.03
2023-02-20T08:54:49.786Z,7.08
2023-02-20T08:57:16.549Z,7.09
2023-02-20T08:59:43.390Z,7.16
2023-02-20T09:02:16.894Z,7.21
2023-02-20T09:04:44.437Z,7.26
2023-02-20T09:07:10.993Z,7.24
2023-02-20T09:09:37.426Z,7.31
2023-02-20T09:12:04.082Z,7.30
2023-02-20T09:14:30.634Z,7.29
2023-02-20T09:16:57.087Z,7.27
2023-02-20T09:19:23.539Z,7.28
2023-02-20T09:21:50.012Z,7.27
2023-02-20T09:24:16.416Z,7.27
2023-02-20T09:26:43.874Z,7.31
2023-02-20T09:29:10.348Z,7.31
2023-02-20T09:31:36.883Z,7.32
2023-02-20T09:34:03.360Z,7.30
2023-02-20T09:36:29.769Z,7.29
2023-02-20T09:38:56.153Z,7.28
2023-02-20T09:41:35.984Z,7.28
2023-02-20T09:44:14.933Z,7.27
2023-02-20T09:46:44.541Z,7.28
2023-02-20T09:49:31.549Z,7.35
2023-02-20T09:52:03.325Z,7.37
2023-02-20T09:54:49.345Z,7.41
2023-02-20T09:57:25.349Z,7.44
2023-02-20T09:59:54.028Z,7.44
2023-02-20T10:02:27.224Z,7.44
2023-02-20T10:05:01.301Z,7.50
2023-02-20T10:07:36.712Z,7.54
2023-02-20T10:10:24.382Z,7.62
2023-02-20T10:13:18.567Z,7.61
2023-02-20T10:16:13.299Z,7.72
2023-02-20T10:18:58.588Z,7.78
2023-02-20T10:21:46.676Z,7.90
2023-02-20T10:24:42.382Z,7.93
2023-02-20T10:27:46.368Z,7.93
2023-02-20T10:30:15.317Z,8.00
2023-02-20T10:32:52.268Z,8.05
2023-02-20T10:35:22.551Z,8.13
2023-02-20T10:37:53.505Z,8.14
2023-02-20T10:40:33.490Z,8.21
2023-02-20T10:43:05.884Z,8.20
2023-02-20T10:45:35.217Z,8.24
2023-02-20T10:48:05.343Z,8.29
2023-02-20T10:50:36.633Z,8.33
2023-02-20T10:53:21.064Z,8.36
2023-02-20T10:56:32.917Z,8.38
2023-02-20T10:59:21.119Z,8.37
2023-02-20T11:01:49.330Z,8.36
2023-02-20T11:04:21.871Z,8.40
2023-02-20T11:06:57.366Z,8.49
2023-02-20T11:09:23.983Z,8.43
2023-02-20T11:11:50.385Z,8.51
2023-02-20T11:14:40.895Z,8.56
2023-02-20T11:17:12.905Z,8.54
2023-02-20T11:19:47.278Z,8.53
2023-02-20T11:22:14.057Z,8.56
2023-02-20T11:24:45.560Z,8.57
2023-02-20T11:27:22.492Z,8.65
2023-02-20T11:29:49.748Z,8.69
2023-02-20T11:32:26.435Z,8.71
2023-02-20T11:35:17.690Z,8.77
2023-02-20T11:37:55.310Z,8.76
2023-02-20T11:40:28.610Z,8.81
2023-02-20T11:42:55.201Z,8.83
2023-02-20T11:45:26.262Z,8.88
2023-02-20T11:48:12.407Z,8.93
2023-02-20T11:50:46.036Z,8.99
2023-02-20T11:53:19.501Z,9.06
2023-02-20T11:55:54.898Z,9.06
2023-02-20T11:58:26.600Z,9.13
2023-02-20T12:00:53.930Z,9.20
2023-02-20T12:03:24.043Z,9.18
2023-02-20T12:05:50.598Z,9.23
2023-02-20T12:08:38.487Z,9.18
2023-02-20T12:11:16.125Z,9.14
2023-02-20T12:13:47.384Z,9.16
2023-02-20T12:16:32.059Z,9.19
2023-02-20T12:19:10.655Z,9.25
2023-02-20T12:22:10.777Z,9.26
2023-02-20T12:24:58.882Z,9.20
2023-02-20T12:27:43.676Z,9.28
2023-02-20T12:30:49.018Z,9.29
2023-02-20T12:33:33.671Z,9.25
2023-02-20T12:36:03.158Z,9.26
2023-02-20T12:38:39.290Z,9.26
2023-02-20T12:41:25.270Z,9.30
2023-02-20T12:44:13.001Z,9.29
2023-02-20T12:46:58.880Z,9.28
2023-02-20T12:49:34.188Z,9.28
2023-02-20T12:52:22.396Z,9.28
2023-02-20T12:54:57.320Z,9.33
2023-02-20T12:57:34.165Z,9.32
2023-02-20T13:00:06.958Z,9.35
2023-02-20T13:02:42.948Z,9.33
2023-02-20T13:05:22.806Z,9.38
2023-02-20T13:07:56.782Z,9.35
2023-02-20T13:10:34.380Z,9.38
2023-02-20T13:13:00.835Z,9.36
2023-02-20T13:15:42.305Z,9.39
2023-02-20T13:18:27.293Z,9.38
2023-02-20T13:20:58.574Z,9.40
2023-02-20T13:23:32.946Z,9.40
2023-02-20T13:25:59.422Z,9.44
2023-02-20T13:28:33.924Z,9.43
2023-02-20T13:31:12.404Z,9.43
2023-02-20T13:33:40.159Z,9.39
2023-02-20T13:36:12.593Z,9.43
2023-02-20T13:38:39.159Z,9.41
2023-02-20T13:41:09.073Z,9.42
2023-02-20T13:43:38.941Z,9.43
2023-02-20T13:46:05.239Z,9.40
2023-02-20T13:48:31.573Z,9.36
2023-02-20T13:51:20.989Z,9.38
2023-02-20T13:53:53.659Z,9.40
2023-02-20T13:56:26.554Z,9.38
2023-02-20T13:58:54.795Z,9.36
2023-02-20T14:01:21.264Z,9.37
2023-02-20T14:04:00.287Z,9.39
2023-02-20T14:06:26.699Z,9.33
2023-02-20T14:08:53.100Z,9.35
2023-02-20T14:11:28.592Z,9.34
2023-02-20T14:13:55.697Z,9.35
2023-02-20T14:16:33.653Z,9.43
2023-02-20T14:19:01.944Z,9.43
2023-02-20T14:21:28.444Z,9.40
2023-02-20T14:23:54.890Z,9.44
2023-02-20T14:26:39.490Z,9.43
2023-02-20T14:29:07.678Z,9.44
2023-02-20T14:31:35.907Z,9.44
2023-02-20T14:34:11.871Z,9.50
2023-02-20T14:36:47.378Z,9.51
2023-02-20T14:39:20.585Z,9.51
2023-02-20T14:42:01.479Z,9.52
2023-02-20T14:44:28.272Z,9.44
2023-02-20T14:46:56.645Z,9.48
2023-02-20T14:49:25.607Z,9.51
2023-02-20T14:51:52.379Z,9.51
2023-02-20T14:54:21.876Z,9.52
2023-02-20T14:56:48.888Z,9.44
2023-02-20T14:59:22.837Z,9.50
2023-02-20T15:01:49.274Z,9.52
2023-02-20T15:04:16.817Z,9.51
2023-02-20T15:06:45.268Z,9.57
2023-02-20T15:09:22.038Z,9.61
2023-02-20T15:11:58.246Z,9.59
2023-02-20T15:14:26.966Z,9.56
2023-02-20T15:17:07.068Z,9.61
2023-02-20T15:19:41.192Z,9.59
2023-02-20T15:22:22.678Z,9.53
2023-02-20T15:24:49.126Z,9.47
2023-02-20T15:27:20.103Z,9.41
2023-02-20T15:29:46.863Z,9.34
2023-02-20T15:32:23.988Z,9.28
2023-02-20T15:34:54.816Z,9.30
2023-02-20T15:37:27.071Z,9.23
2023-02-20T15:40:24.490Z,9.14
2023-02-20T15:42:51.251Z,9.08
2023-02-20T15:45:17.939Z,9.08
2023-02-20T15:47:44.418Z,9.03
2023-02-20T15:50:10.881Z,8.97
2023-02-20T15:52:37.252Z,8.98
2023-02-20T15:55:03.896Z,8.91
2023-02-20T15:57:30.274Z,8.87
2023-02-20T15:59:56.731Z,8.86
2023-02-20T16:02:24.508Z,8.87
2023-02-20T16:04:51.430Z,8.79
2023-02-20T16:07:18.535Z,8.78
2023-02-20T16:09:45.090Z,8.82
2023-02-20T16:12:23.180Z,8.77
2023-02-20T16:14:49.600Z,8.72
2023-02-20T16:17:20.140Z,8.67
2023-02-20T16:19:46.564Z,8.67
2023-02-20T16:22:12.998Z,8.67
2023-02-20T16:24:39.435Z,8.70
2023-02-20T16:27:21.626Z,8.64
2023-02-20T16:29:49.346Z,8.67
2023-02-20T16:32:26.159Z,8.62
2023-02-20T16:34:53.241Z,8.67
2023-02-20T16:37:19.708Z,8.68
2023-02-20T16:39:46.119Z,8.65
2023-02-20T16:42:37.599Z,8.64
2023-02-20T16:45:10.544Z,8.61
2023-02-20T16:47:36.967Z,8.60
2023-02-20T16:50:03.581Z,8.60
2023-02-20T16:52:37.115Z,8.58
2023-02-20T16:55:07.923Z,8.57
2023-02-20T16:57:34.524Z,8.53
2023-02-20T17:00:01.012Z,8.54
2023-02-20T17:02:30.009Z,8.57
2023-02-20T17:04:56.528Z,8.52
2023-02-20T17:07:22.990Z,8.58
2023-02-20T17:09:49.419Z,8.62
2023-02-20T17:12:18.264Z,8.58
2023-02-20T17:14:45.185Z,8.63
2023-02-20T17:17:11.625Z,8.58
2023-02-20T17:19:38.972Z,8.53
2023-02-20T17:22:05.953Z,8.60
2023-02-20T17:24:32.417Z,8.58
2023-02-20T17:26:59.583Z,8.62
2023-02-20T17:29:26.688Z,8.58
2023-02-20T17:31:54.457Z,8.59
2023-02-20T17:34:21.011Z,8.54
2023-02-20T17:36:47.519Z,8.53
2023-02-20T17:39:15.176Z,8.57
2023-02-20T17:41:41.587Z,8.57
2023-02-20T17:44:08.001Z,8.55
2023-02-20T17:46:34.470Z,8.55
2023-02-20T17:49:00.964Z,8.57
2023-02-20T17:51:27.348Z,8.58
2023-02-20T17:53:53.769Z,8.57
2023-02-20T17:56:20.205Z,8.58
2023-02-20T17:58:46.631Z,8.60
2023-02-20T18:01:13.085Z,8.58
2023-02-20T18:03:39.725Z,8.53
2023-02-20T18:06:06.314Z,8.53
2023-02-20T18:08:33.781Z,8.55
2023-02-20T18:11:00.219Z,8.58
2023-02-20T18:13:31.030Z,8.55
2023-02-20T18:15:58.683Z,8.55
2023-02-20T18:18:25.283Z,8.47
2023-02-20T18:20:51.764Z,8.49
2023-02-20T18:23:21.669Z,8.51
2023-02-20T18:25:53.518Z,8.51
2023-02-20T18:28:20.169Z,8.58
2023-02-20T18:30:46.720Z,8.62
2023-02-20T18:33:16.589Z,8.59
2023-02-20T18:35:50.626Z,8.60
2023-02-20T18:38:25.166Z,8.59
2023-02-20T18:40:51.727Z,8.57
2023-02-20T18:43:18.380Z,8.57
2023-02-20T18:45:45.017Z,8.57
2023-02-20T18:48:11.843Z,8.59
2023-02-20T18:50:38.730Z,8.58
2023-02-20T18:53:05.437Z,8.59
2023-02-20T18:55:32.029Z,8.59
2023-02-20T18:57:58.697Z,8.58
2023-02-20T19:00:28.133Z,8.57
2023-02-20T19:02:55.664Z,8.58
2023-02-20T19:05:24.481Z,8.53
2023-02-20T19:07:51.022Z,8.60
2023-02-20T19:10:22.311Z,8.56
2023-02-20T19:12:49.364Z,8.53
2023-02-20T19:15:16.105Z,8.58
2023-02-20T19:17:43.796Z,8.60
2023-02-20T19:20:16.261Z,8.57
2023-02-20T19:22:42.657Z,8.63
2023-02-20T19:25:09.473Z,8.59
2023-02-20T19:27:35.915Z,8.65
2023-02-20T19:30:02.359Z,8.62
2023-02-20T19:32:29.015Z,8.59
2023-02-20T19:34:55.510Z,8.64
2023-02-20T19:37:21.935Z,8.63
2023-02-20T19:39:48.348Z,8.61
2023-02-20T19:42:15.498Z,8.60
2023-02-20T19:44:41.877Z,8.60
2023-02-20T19:47:08.407Z,8.60
2023-02-20T19:49:34.862Z,8.69
2023-02-20T19:52:01.439Z,8.63
2023-02-20T19:54:28.735Z,8.63
2023-02-20T19:56:59.407Z,8.61
2023-02-20T19:59:25.826Z,8.65
2023-02-20T20:01:56.445Z,8.65
2023-02-20T20:04:23.762Z,8.66
2023-02-20T20:06:50.217Z,8.67
2023-02-20T20:09:30.111Z,8.64
2023-02-20T20:12:00.207Z,8.69
2023-02-20T20:14:26.647Z,8.66
2023-02-20T20:16:53.207Z,8.66
2023-02-20T20:19:19.679Z,8.68
2023-02-20T20:21:47.977Z,8.68
2023-02-20T20:24:14.398Z,8.64
2023-02-20T20:26:40.895Z,8.63
2023-02-20T20:29:07.293Z,8.67
2023-02-20T20:31:38.325Z,8.66
2023-02-20T20:34:05.288Z,8.67
2023-02-20T20:36:32.808Z,8.75
2023-02-20T20:38:59.303Z,8.70
2023-02-20T20:41:30.391Z,8.72
2023-02-20T20:44:00.785Z,8.69
2023-02-20T20:46:27.240Z,8.68
2023-02-20T20:48:54.385Z,8.66
2023-02-20T20:51:20.801Z,8.70
2023-02-20T20:53:47.226Z,8.73
2023-02-20T20:56:13.626Z,8.67
2023-02-20T20:58:40.133Z,8.69
2023-02-20T21:01:06.955Z,8.67
2023-02-20T21:03:33.415Z,8.72
2023-02-20T21:05:59.874Z,8.73
2023-02-20T21:08:26.308Z,8.72
2023-02-20T21:10:52.706Z,8.70
2023-02-20T21:13:19.122Z,8.67
2023-02-20T21:15:45.644Z,8.68
2023-02-20T21:18:14.821Z,8.61
2023-02-20T21:20:41.259Z,8.63
2023-02-20T21:23:07.668Z,8.65
2023-02-20T21:25:34.082Z,8.62
2023-02-20T21:28:00.496Z,8.60
2023-02-20T21:30:26.938Z,8.64
2023-02-20T21:32:53.803Z,8.68
2023-02-20T21:35:20.866Z,8.64
2023-02-20T21:37:47.714Z,8.62
2023-02-20T21:40:18.032Z,8.62
2023-02-20T21:42:46.072Z,8.61
2023-02-20T21:45:12.513Z,8.61
2023-02-20T21:47:38.901Z,8.63
2023-02-20T21:50:06.283Z,8.61
2023-02-20T21:52:32.685Z,8.64
2023-02-20T21:54:59.179Z,8.66
2023-02-20T21:57:25.910Z,8.66
2023-02-20T21:59:52.340Z,8.65
2023-02-20T22:02:19.824Z,8.61
2023-02-20T22:04:46.237Z,8.64
2023-02-20T22:07:13.044Z,8.65
2023-02-20T22:09:39.480Z,8.68
2023-02-20T22:12:06.093Z,8.66
2023-02-20T22:14:32.573Z,8.65
2023-02-20T22:16:58.967Z,8.66
2023-02-20T22:19:25.380Z,8.61
2023-02-20T22:21:51.838Z,8.64
2023-02-20T22:24:22.345Z,8.64
2023-02-20T22:26:51.126Z,8.71
2023-02-20T22:29:17.522Z,8.67
2023-02-20T22:31:44.010Z,8.61
2023-02-20T22:34:10.506Z,8.57
2023-02-20T22:36:36.966Z,8.57
2023-02-20T22:39:03.896Z,8.62
2023-02-20T22:41:30.291Z,8.64
2023-02-20T22:43:56.725Z,8.65
2023-02-20T22:46:23.147Z,8.64
2023-02-20T22:48:49.592Z,8.63
2023-02-20T22:51:16.312Z,8.58
2023-02-20T22:53:45.577Z,8.63
2023-02-20T22:56:21.634Z,8.59
2023-02-20T22:58:48.031Z,8.61
2023-02-20T23:01:15.413Z,8.56
2023-02-20T23:03:42.121Z,8.58
2023-02-20T23:06:17.632Z,8.56
2023-02-20T23:08:45.692Z,8.56
2023-02-20T23:11:12.590Z,8.58
2023-02-20T23:13:39.175Z,8.56
2023-02-20T23:16:05.758Z,8.62
2023-02-20T23:18:32.188Z,8.60
2023-02-20T23:20:58.575Z,8.58
2023-02-20T23:23:24.990Z,8.61
2023-02-20T23:25:51.420Z,8.58
2023-02-20T23:28:20.346Z,8.52
2023-02-20T23:30:46.786Z,8.57
2023-02-20T23:33:13.220Z,8.53
2023-02-20T23:35:39.614Z,8.54
2023-02-20T23:38:06.113Z,8.62
2023-02-20T23:40:36.767Z,8.56
2023-02-20T23:43:04.738Z,8.51
2023-02-20T23:45:31.148Z,8.51
2023-02-20T23:47:57.549Z,8.54
2023-02-20T23:50:23.965Z,8.51
2023-02-20T23:52:50.364Z,8.51
2023-02-20T23:55:16.764Z,8.57
2023-02-20T23:57:43.166Z,8.54
